createdAt,value
2019-02-07T00:00:12.923Z,305.70
2019-02-07T00:01:12.916Z,305.42
2019-02-07T00:02:12.943Z,305.55
2019-02-07T00:03:12.878Z,305.63
2019-02-07T00:04:12.880Z,305.55
2019-02-07T00:05:12.874Z,305.20
2019-02-07T00:06:12.859Z,305.27
2019-02-07T00:07:12.905Z,305.15
2019-02-07T00:08:12.879Z,305.47
2019-02-07T00:09:12.819Z,305.40
2019-02-07T00:10:12.810Z,305.42
2019-02-07T00:11:12.798Z,305.19
2019-02-07T00:12:12.790Z,305.36
2019-02-07T00:13:12.787Z,305.40
2019-02-07T00:14:12.790Z,305.17
2019-02-07T00:15:12.756Z,304.83
2019-02-07T00:16:12.751Z,305.21
2019-02-07T00:17:12.746Z,305.73
2019-02-07T00:18:12.774Z,305.06
2019-02-07T00:19:12.742Z,305.08
2019-02-07T00:20:12.747Z,305.69
2019-02-07T00:21:12.687Z,305.37
2019-02-07T00:22:12.680Z,304.74
2019-02-07T00:23:12.659Z,305.66
2019-02-07T00:24:12.671Z,305.29
2019-02-07T00:25:12.680Z,305.12
2019-02-07T00:26:12.654Z,305.28
2019-02-07T00:27:12.641Z,305.56
2019-02-07T00:28:12.609Z,305.20
2019-02-07T00:29:12.594Z,304.93
2019-02-07T00:30:12.665Z,305.12
2019-02-07T00:31:12.584Z,304.74
2019-02-07T00:32:12.575Z,304.90
2019-02-07T00:33:12.559Z,305.12
2019-02-07T00:34:12.545Z,305.27
2019-02-07T00:35:12.541Z,305.28
2019-02-07T00:36:12.548Z,304.99
2019-02-07T00:37:12.519Z,305.17
2019-02-07T00:38:12.514Z,305.24
2019-02-07T00:39:12.504Z,305.64
2019-02-07T00:40:12.484Z,305.20
2019-02-07T00:41:12.503Z,305.39
2019-02-07T00:42:12.454Z,305.14
2019-02-07T00:43:12.455Z,305.22
2019-02-07T00:44:12.439Z,305.08
2019-02-07T00:45:12.438Z,305.39
2019-02-07T00:46:12.406Z,305.17
2019-02-07T00:47:12.409Z,305.34
2019-02-07T00:48:12.391Z,305.36
2019-02-07T00:49:12.399Z,304.98
2019-02-07T00:50:12.376Z,305.16
2019-02-07T00:51:12.393Z,305.41
2019-02-07T00:52:12.349Z,305.21
2019-02-07T00:53:12.344Z,305.71
2019-02-07T00:54:12.351Z,305.56
2019-02-07T00:55:12.314Z,305.24
2019-02-07T00:56:12.312Z,305.70
2019-02-07T00:57:12.326Z,305.05
2019-02-07T00:58:12.284Z,305.39
2019-02-07T00:59:12.288Z,305.38
2019-02-07T01:00:12.266Z,304.92
2019-02-07T01:01:12.246Z,305.60
2019-02-07T01:02:12.271Z,305.31
2019-02-07T01:03:12.236Z,305.32
2019-02-07T01:04:12.217Z,304.97
2019-02-07T01:05:12.195Z,305.01
2019-02-07T01:06:12.199Z,305.33
2019-02-07T01:07:12.200Z,304.98
2019-02-07T01:08:12.199Z,305.19
2019-02-07T01:09:12.169Z,305.50
2019-02-07T01:10:12.156Z,305.20
2019-02-07T01:11:12.146Z,305.51
2019-02-07T01:12:12.123Z,304.95
2019-02-07T01:13:12.138Z,305.50
2019-02-07T01:14:12.109Z,305.51
2019-02-07T01:15:12.094Z,305.36
2019-02-07T01:16:12.109Z,305.34
2019-02-07T01:17:12.111Z,305.10
2019-02-07T01:18:12.081Z,305.45
2019-02-07T01:19:12.056Z,305.18
2019-02-07T01:20:12.058Z,305.36
2019-02-07T01:21:12.055Z,305.06
2019-02-07T01:22:12.045Z,304.70
2019-02-07T01:23:12.016Z,305.47
2019-02-07T01:24:12.006Z,305.00
2019-02-07T01:25:11.995Z,305.36
2019-02-07T01:26:11.981Z,304.84
2019-02-07T01:27:12.008Z,304.93
2019-02-07T01:28:11.972Z,305.21
2019-02-07T01:29:11.961Z,305.16
2019-02-07T01:30:11.947Z,305.20
2019-02-07T01:31:11.938Z,305.24
2019-02-07T01:32:11.930Z,305.25
2019-02-07T01:33:11.910Z,305.26
2019-02-07T01:34:11.908Z,305.56
2019-02-07T01:35:11.893Z,305.00
2019-02-07T01:36:11.874Z,305.09
2019-02-07T01:37:11.892Z,304.94
2019-02-07T01:38:11.854Z,305.11
2019-02-07T01:39:11.842Z,305.02
2019-02-07T01:40:11.835Z,305.09
2019-02-07T01:41:11.830Z,305.35
2019-02-07T01:42:11.838Z,305.21
2019-02-07T01:43:11.819Z,305.51
2019-02-07T01:44:11.793Z,305.47
2019-02-07T01:45:13.374Z,305.47
2019-02-07T01:46:11.769Z,305.33
2019-02-07T01:47:11.787Z,305.24
2019-02-07T01:48:11.768Z,305.61
2019-02-07T01:49:11.744Z,304.82
2019-02-07T01:50:11.724Z,305.46
2019-02-07T01:51:11.720Z,305.33
2019-02-07T01:52:11.712Z,305.55
2019-02-07T01:53:11.719Z,305.25
2019-02-07T01:54:11.706Z,305.15
2019-02-07T01:55:11.685Z,305.41
2019-02-07T01:56:11.663Z,305.16
2019-02-07T01:57:11.650Z,305.22
2019-02-07T01:58:11.673Z,304.99
2019-02-07T01:59:11.633Z,305.36
2019-02-07T02:00:11.624Z,305.47
2019-02-07T02:01:11.616Z,305.52
2019-02-07T02:02:11.597Z,305.51
2019-02-07T02:03:11.594Z,305.21
2019-02-07T02:04:11.596Z,305.02
2019-02-07T02:05:11.561Z,305.43
2019-02-07T02:06:11.590Z,305.35
2019-02-07T02:07:11.561Z,305.62
2019-02-07T02:08:11.527Z,305.45
2019-02-07T02:09:11.517Z,305.30
2019-02-07T02:10:11.506Z,305.16
2019-02-07T02:11:11.532Z,305.22
2019-02-07T02:12:11.504Z,305.55
2019-02-07T02:13:11.481Z,305.38
2019-02-07T02:14:11.497Z,305.32
2019-02-07T02:15:11.485Z,305.48
2019-02-07T02:16:11.450Z,305.25
2019-02-07T02:17:11.506Z,305.23
2019-02-07T02:18:11.431Z,305.67
2019-02-07T02:19:11.420Z,305.57
2019-02-07T02:20:11.449Z,305.02
2019-02-07T02:21:11.414Z,305.01
2019-02-07T02:22:11.377Z,305.46
2019-02-07T02:23:11.380Z,305.59
2019-02-07T02:24:11.370Z,305.47
2019-02-07T02:25:11.362Z,305.31
2019-02-07T02:26:11.372Z,305.45
2019-02-07T02:27:11.341Z,305.33
2019-02-07T02:28:11.310Z,305.33
2019-02-07T02:29:11.308Z,305.46
2019-02-07T02:30:11.297Z,305.20
2019-02-07T02:31:11.302Z,305.46
2019-02-07T02:32:11.290Z,305.36
2019-02-07T02:33:11.276Z,305.21
2019-02-07T02:34:11.261Z,305.27
2019-02-07T02:35:11.248Z,305.14
2019-02-07T02:36:11.267Z,305.80
2019-02-07T02:37:11.217Z,304.95
2019-02-07T02:38:11.214Z,305.55
2019-02-07T02:39:11.222Z,305.31
2019-02-07T02:40:11.181Z,305.27
2019-02-07T02:41:11.177Z,305.35
2019-02-07T02:42:11.184Z,305.06
2019-02-07T02:43:11.162Z,305.43
2019-02-07T02:44:11.148Z,305.49
2019-02-07T02:45:11.159Z,305.15
2019-02-07T02:46:11.128Z,305.67
2019-02-07T02:47:11.150Z,304.95
2019-02-07T02:48:11.103Z,305.25
2019-02-07T02:49:11.093Z,305.59
2019-02-07T02:50:11.077Z,305.05
2019-02-07T02:51:11.063Z,305.33
2019-02-07T02:52:11.068Z,305.39
2019-02-07T02:53:11.074Z,305.52
2019-02-07T02:54:11.033Z,305.45
2019-02-07T02:55:11.045Z,305.24
2019-02-07T02:56:11.022Z,305.49
2019-02-07T02:57:11.033Z,305.36
2019-02-07T02:58:11.001Z,305.36
2019-02-07T02:59:10.988Z,305.70
2019-02-07T03:00:10.996Z,305.13
2019-02-07T03:01:10.962Z,305.37
2019-02-07T03:02:10.971Z,305.69
2019-02-07T03:03:10.939Z,305.54
2019-02-07T03:04:10.942Z,305.38
2019-02-07T03:05:10.948Z,305.20
2019-02-07T03:06:10.932Z,305.32
2019-02-07T03:07:10.908Z,305.36
2019-02-07T03:08:10.899Z,305.57
2019-02-07T03:09:10.917Z,305.30
2019-02-07T03:10:10.882Z,305.75
2019-02-07T03:11:10.862Z,305.38
2019-02-07T03:12:10.874Z,305.67
2019-02-07T03:13:10.843Z,305.57
2019-02-07T03:14:10.852Z,305.71
2019-02-07T03:15:10.808Z,305.54
2019-02-07T03:16:10.808Z,305.55
2019-02-07T03:17:10.802Z,305.76
2019-02-07T03:18:10.806Z,305.16
2019-02-07T03:19:10.780Z,305.18
2019-02-07T03:20:10.785Z,305.65
2019-02-07T03:21:10.748Z,305.41
2019-02-07T03:22:10.774Z,305.13
2019-02-07T03:23:10.742Z,305.15
2019-02-07T03:24:10.731Z,304.88
2019-02-07T03:25:10.728Z,305.66
2019-02-07T03:26:10.691Z,305.22
2019-02-07T03:27:10.727Z,305.44
2019-02-07T03:28:10.679Z,305.60
2019-02-07T03:29:10.682Z,305.27
2019-02-07T03:30:10.658Z,305.23
2019-02-07T03:31:10.663Z,305.59
2019-02-07T03:32:10.630Z,305.54
2019-02-07T03:33:11.139Z,305.42
2019-02-07T03:34:10.609Z,304.80
2019-02-07T03:35:10.606Z,305.49
2019-02-07T03:36:10.595Z,305.37
2019-02-07T03:37:10.595Z,305.42
2019-02-07T03:38:10.607Z,305.07
2019-02-07T03:39:10.568Z,305.38
2019-02-07T03:40:10.550Z,305.22
2019-02-07T03:41:10.552Z,305.30
2019-02-07T03:42:10.532Z,304.81
2019-02-07T03:43:10.545Z,305.06
2019-02-07T03:44:10.509Z,305.26
2019-02-07T03:45:10.489Z,305.30
2019-02-07T03:46:10.525Z,305.22
2019-02-07T03:47:10.463Z,305.66
2019-02-07T03:48:10.476Z,305.76
2019-02-07T03:49:10.490Z,305.44
2019-02-07T03:50:10.610Z,305.17
2019-02-07T03:51:10.419Z,305.29
2019-02-07T03:52:10.418Z,305.27
2019-02-07T03:53:10.434Z,305.32
2019-02-07T03:54:10.407Z,305.36
2019-02-07T03:55:10.385Z,305.11
2019-02-07T03:56:10.567Z,305.26
2019-02-07T03:57:10.378Z,305.29
2019-02-07T03:58:10.408Z,305.28
2019-02-07T03:59:10.343Z,305.32
2019-02-07T04:00:10.324Z,305.38
2019-02-07T04:01:10.315Z,305.72
2019-02-07T04:02:10.326Z,305.34
2019-02-07T04:03:10.293Z,305.40
2019-02-07T04:04:10.295Z,305.41
2019-02-07T04:05:10.283Z,305.20
2019-02-07T04:06:10.290Z,305.43
2019-02-07T04:07:10.287Z,305.53
2019-02-07T04:08:10.242Z,305.20
2019-02-07T04:09:10.233Z,305.32
2019-02-07T04:10:10.235Z,305.10
2019-02-07T04:11:10.213Z,305.29
2019-02-07T04:12:10.250Z,305.12
2019-02-07T04:13:10.246Z,305.24
2019-02-07T04:14:10.241Z,305.70
2019-02-07T04:15:10.178Z,305.16
2019-02-07T04:16:15.080Z,305.03
2019-02-07T04:17:11.188Z,305.77
2019-02-07T04:18:10.174Z,305.63
2019-02-07T04:19:10.188Z,305.33
2019-02-07T04:20:10.111Z,305.40
2019-02-07T04:21:10.108Z,305.08
2019-02-07T04:22:10.129Z,305.49
2019-02-07T04:23:10.126Z,305.06
2019-02-07T04:24:10.159Z,304.90
2019-02-07T04:25:10.084Z,305.31
2019-02-07T04:26:10.157Z,304.99
2019-02-07T04:27:10.119Z,305.13
2019-02-07T04:28:10.149Z,305.56
2019-02-07T04:29:10.083Z,305.30
2019-02-07T04:30:10.051Z,305.69
2019-02-07T04:31:10.067Z,305.29
2019-02-07T04:32:09.983Z,305.38
2019-02-07T04:33:09.989Z,305.50
2019-02-07T04:34:09.961Z,305.54
2019-02-07T04:35:09.993Z,305.67
2019-02-07T04:36:09.999Z,305.31
2019-02-07T04:37:10.218Z,304.99
2019-02-07T04:38:09.988Z,305.51
2019-02-07T04:39:09.927Z,305.27
2019-02-07T04:40:12.382Z,305.29
2019-02-07T04:41:09.909Z,305.28
2019-02-07T04:42:10.030Z,305.28
2019-02-07T04:43:09.939Z,305.48
2019-02-07T04:44:09.873Z,305.86
2019-02-07T04:45:09.869Z,304.98
2019-02-07T04:46:09.839Z,305.12
2019-02-07T04:47:09.854Z,305.72
2019-02-07T04:48:09.822Z,305.22
2019-02-07T04:49:10.139Z,305.11
2019-02-07T04:50:09.799Z,305.62
2019-02-07T04:51:09.810Z,305.24
2019-02-07T04:52:09.768Z,305.55
2019-02-07T04:53:09.815Z,305.35
2019-02-07T04:54:09.748Z,305.09
2019-02-07T04:55:09.743Z,305.39
2019-02-07T04:56:09.739Z,305.23
2019-02-07T04:57:09.806Z,305.81
2019-02-07T04:58:09.755Z,305.69
2019-02-07T04:59:09.784Z,305.37
2019-02-07T05:00:10.106Z,305.26
2019-02-07T05:01:09.671Z,305.21
2019-02-07T05:02:09.688Z,305.21
2019-02-07T05:03:09.736Z,305.35
2019-02-07T05:04:09.654Z,305.38
2019-02-07T05:05:09.633Z,305.51
2019-02-07T05:06:09.619Z,305.42
2019-02-07T05:07:09.622Z,305.29
2019-02-07T05:08:09.610Z,305.63
2019-02-07T05:09:09.617Z,305.52
2019-02-07T05:10:09.593Z,305.18
2019-02-07T05:11:09.589Z,305.21
2019-02-07T05:12:09.551Z,305.09
2019-02-07T05:13:09.542Z,305.12
2019-02-07T05:14:09.554Z,305.53
2019-02-07T05:15:09.528Z,305.62
2019-02-07T05:16:09.525Z,305.40
2019-02-07T05:17:09.603Z,305.78
2019-02-07T05:18:09.496Z,305.55
2019-02-07T05:19:09.516Z,305.31
2019-02-07T05:20:09.487Z,305.27
2019-02-07T05:21:09.690Z,305.59
2019-02-07T05:22:09.462Z,305.33
2019-02-07T05:23:09.445Z,305.31
2019-02-07T05:24:09.427Z,305.30
2019-02-07T05:25:09.448Z,305.26
2019-02-07T05:26:09.409Z,305.54
2019-02-07T05:27:09.397Z,305.70
2019-02-07T05:28:09.401Z,305.99
2019-02-07T05:29:09.388Z,305.83
2019-02-07T05:30:09.376Z,305.86
2019-02-07T05:31:09.394Z,305.74
2019-02-07T05:32:09.342Z,305.19
2019-02-07T05:33:09.351Z,305.35
2019-02-07T05:34:09.323Z,305.55
2019-02-07T05:35:09.317Z,305.57
2019-02-07T05:36:09.314Z,305.85
2019-02-07T05:37:09.293Z,306.09
2019-02-07T05:38:09.279Z,305.67
2019-02-07T05:39:09.271Z,305.48
2019-02-07T05:40:09.273Z,305.43
2019-02-07T05:41:09.290Z,305.23
2019-02-07T05:42:09.238Z,305.65
2019-02-07T05:43:09.228Z,305.73
2019-02-07T05:44:09.214Z,305.89
2019-02-07T05:45:09.203Z,305.67
2019-02-07T05:46:09.219Z,305.29
2019-02-07T05:47:09.181Z,305.42
2019-02-07T05:48:09.178Z,305.55
2019-02-07T05:49:09.174Z,305.47
2019-02-07T05:50:09.144Z,305.96
2019-02-07T05:51:09.150Z,305.70
2019-02-07T05:52:09.159Z,305.42
2019-02-07T05:53:09.157Z,305.39
2019-02-07T05:54:09.113Z,305.63
2019-02-07T05:55:09.108Z,305.88
2019-02-07T05:56:09.084Z,305.62
2019-02-07T05:57:09.120Z,305.45
2019-02-07T05:58:09.174Z,305.39
2019-02-07T05:59:09.071Z,305.26
2019-02-07T06:00:09.045Z,305.54
2019-02-07T06:01:09.105Z,305.85
2019-02-07T06:02:09.039Z,305.95
2019-02-07T06:03:09.033Z,305.50
2019-02-07T06:04:08.995Z,305.80
2019-02-07T06:05:08.997Z,305.18
2019-02-07T06:06:08.982Z,305.46
2019-02-07T06:07:08.978Z,305.63
2019-02-07T06:08:08.990Z,305.58
2019-02-07T06:09:08.940Z,305.73
2019-02-07T06:10:08.931Z,305.73
2019-02-07T06:11:08.921Z,305.61
2019-02-07T06:12:08.912Z,305.98
2019-02-07T06:13:08.904Z,305.53
2019-02-07T06:14:08.923Z,305.63
2019-02-07T06:15:08.907Z,305.70
2019-02-07T06:16:08.862Z,305.48
2019-02-07T06:17:08.928Z,305.34
2019-02-07T06:18:08.846Z,305.90
2019-02-07T06:19:08.833Z,305.80
2019-02-07T06:20:08.878Z,305.49
2019-02-07T06:21:08.835Z,305.71
2019-02-07T06:22:08.799Z,305.72
2019-02-07T06:23:08.793Z,305.81
2019-02-07T06:24:08.833Z,305.74
2019-02-07T06:25:08.809Z,306.46
2019-02-07T06:26:08.821Z,305.86
2019-02-07T06:27:08.759Z,305.64
2019-02-07T06:28:08.742Z,305.94
2019-02-07T06:29:08.746Z,305.70
2019-02-07T06:30:08.716Z,305.69
2019-02-07T06:31:08.723Z,305.65
2019-02-07T06:32:08.706Z,305.63
2019-02-07T06:33:08.713Z,305.84
2019-02-07T06:34:08.689Z,305.93
2019-02-07T06:35:08.673Z,305.83
2019-02-07T06:36:08.674Z,305.94
2019-02-07T06:37:08.640Z,306.10
2019-02-07T06:38:08.662Z,305.80
2019-02-07T06:39:08.630Z,305.90
2019-02-07T06:40:08.653Z,305.98
2019-02-07T06:41:08.609Z,305.98
2019-02-07T06:42:08.598Z,306.06
2019-02-07T06:43:08.578Z,306.00
2019-02-07T06:44:08.582Z,305.62
2019-02-07T06:45:08.563Z,305.67
2019-02-07T06:46:08.572Z,305.85
2019-02-07T06:47:13.394Z,306.06
2019-02-07T06:48:09.526Z,305.91
2019-02-07T06:49:08.517Z,305.97
2019-02-07T06:50:08.498Z,305.77
2019-02-07T06:51:08.752Z,306.01
2019-02-07T06:52:08.488Z,305.75
2019-02-07T06:53:11.118Z,305.87
2019-02-07T06:54:08.479Z,305.75
2019-02-07T06:55:08.446Z,305.62
2019-02-07T06:56:08.473Z,305.52
2019-02-07T06:57:08.440Z,305.79
2019-02-07T06:58:08.421Z,305.92
2019-02-07T06:59:08.426Z,306.10
2019-02-07T07:00:08.404Z,305.88
2019-02-07T07:01:08.392Z,305.85
2019-02-07T07:02:08.418Z,305.76
2019-02-07T07:03:08.376Z,305.59
2019-02-07T07:04:08.364Z,306.16
2019-02-07T07:05:08.390Z,306.17
2019-02-07T07:06:08.346Z,305.67
2019-02-07T07:07:08.344Z,306.29
2019-02-07T07:08:08.309Z,305.76
2019-02-07T07:09:08.301Z,305.81
2019-02-07T07:10:08.294Z,305.91
2019-02-07T07:11:08.303Z,305.96
2019-02-07T07:12:08.359Z,305.81
2019-02-07T07:13:08.278Z,305.27
2019-02-07T07:14:08.279Z,305.71
2019-02-07T07:15:08.234Z,305.89
2019-02-07T07:16:08.237Z,305.55
2019-02-07T07:17:08.236Z,305.64
2019-02-07T07:18:08.232Z,305.85
2019-02-07T07:19:08.208Z,305.76
2019-02-07T07:20:08.189Z,305.78
2019-02-07T07:21:08.165Z,305.63
2019-02-07T07:22:08.156Z,305.71
2019-02-07T07:23:08.165Z,305.80
2019-02-07T07:24:08.142Z,305.64
2019-02-07T07:25:08.137Z,306.01
2019-02-07T07:26:09.502Z,305.36
2019-02-07T07:27:08.195Z,305.28
2019-02-07T07:28:08.121Z,305.66
2019-02-07T07:29:08.092Z,306.01
2019-02-07T07:30:08.078Z,305.40
2019-02-07T07:31:08.071Z,305.82
2019-02-07T07:32:08.059Z,305.99
2019-02-07T07:33:08.071Z,306.16
2019-02-07T07:34:08.025Z,305.76
2019-02-07T07:35:08.018Z,305.94
2019-02-07T07:36:08.016Z,305.92
2019-02-07T07:37:08.002Z,305.84
2019-02-07T07:38:07.993Z,305.63
2019-02-07T07:39:08.005Z,306.01
2019-02-07T07:40:08.105Z,305.69
2019-02-07T07:41:07.966Z,305.61
2019-02-07T07:42:07.958Z,305.66
2019-02-07T07:43:07.935Z,305.79
2019-02-07T07:44:07.971Z,305.59
2019-02-07T07:45:07.919Z,305.91
2019-02-07T07:46:07.931Z,305.77
2019-02-07T07:47:07.885Z,305.83
2019-02-07T07:48:07.884Z,305.84
2019-02-07T07:49:10.430Z,305.63
2019-02-07T07:50:07.859Z,305.50
2019-02-07T07:51:07.852Z,305.85
2019-02-07T07:52:07.857Z,306.22
2019-02-07T07:53:07.830Z,305.89
2019-02-07T07:54:07.843Z,305.91
2019-02-07T07:55:07.799Z,305.86
2019-02-07T07:56:07.955Z,305.77
2019-02-07T07:57:07.809Z,305.57
2019-02-07T07:58:07.764Z,306.10
2019-02-07T07:59:07.801Z,306.00
2019-02-07T08:00:07.753Z,305.41
2019-02-07T08:01:07.751Z,305.59
2019-02-07T08:02:07.732Z,305.91
2019-02-07T08:03:07.722Z,305.87
2019-02-07T08:04:07.700Z,306.30
2019-02-07T08:05:07.707Z,305.86
2019-02-07T08:06:07.682Z,305.71
2019-02-07T08:07:07.673Z,305.92
2019-02-07T08:08:07.673Z,305.81
2019-02-07T08:09:07.658Z,305.86
2019-02-07T08:10:07.671Z,305.38
2019-02-07T08:11:07.634Z,305.72
2019-02-07T08:12:07.612Z,305.81
2019-02-07T08:13:07.601Z,305.90
2019-02-07T08:14:07.601Z,306.08
2019-02-07T08:15:07.595Z,305.73
2019-02-07T08:16:07.587Z,305.82
2019-02-07T08:17:07.565Z,306.03
2019-02-07T08:18:07.550Z,305.78
2019-02-07T08:19:07.538Z,305.33
2019-02-07T08:20:07.532Z,305.26
2019-02-07T08:21:07.547Z,305.72
2019-02-07T08:22:07.516Z,305.59
2019-02-07T08:23:07.502Z,305.40
2019-02-07T08:24:07.510Z,306.04
2019-02-07T08:25:07.476Z,305.67
2019-02-07T08:26:07.620Z,305.93
2019-02-07T08:27:07.450Z,305.29
2019-02-07T08:28:07.452Z,305.68
2019-02-07T08:29:07.435Z,305.07
2019-02-07T08:30:07.414Z,305.51
2019-02-07T08:31:07.459Z,305.52
2019-02-07T08:32:07.407Z,305.95
2019-02-07T08:33:07.398Z,305.66
2019-02-07T08:34:07.386Z,305.77
2019-02-07T08:35:07.376Z,305.63
2019-02-07T08:36:07.347Z,305.82
2019-02-07T08:37:07.354Z,305.80
2019-02-07T08:38:07.333Z,305.51
2019-02-07T08:39:07.336Z,305.63
2019-02-07T08:40:07.337Z,305.47
2019-02-07T08:41:07.308Z,305.61
2019-02-07T08:42:07.335Z,305.84
2019-02-07T08:43:07.282Z,305.90
2019-02-07T08:44:07.270Z,305.54
2019-02-07T08:45:07.258Z,305.64
2019-02-07T08:46:07.267Z,305.55
2019-02-07T08:47:07.241Z,305.30
2019-02-07T08:48:07.240Z,305.28
2019-02-07T08:49:07.209Z,305.62
2019-02-07T08:50:07.205Z,305.61
2019-02-07T08:51:07.193Z,305.94
2019-02-07T08:52:07.183Z,305.38
2019-02-07T08:53:07.286Z,305.63
2019-02-07T08:54:07.169Z,305.40
2019-02-07T08:55:07.158Z,305.04
2019-02-07T08:56:07.129Z,305.74
2019-02-07T08:57:07.123Z,305.52
2019-02-07T08:58:07.147Z,305.26
2019-02-07T08:59:07.099Z,305.59
2019-02-07T09:00:07.098Z,305.49
2019-02-07T09:01:07.090Z,305.30
2019-02-07T09:02:07.071Z,305.45
2019-02-07T09:03:07.059Z,305.68
2019-02-07T09:04:07.084Z,305.42
2019-02-07T09:05:07.051Z,305.46
2019-02-07T09:06:07.034Z,305.67
2019-02-07T09:07:07.030Z,305.51
2019-02-07T09:08:07.020Z,305.22
2019-02-07T09:09:07.007Z,305.23
2019-02-07T09:10:06.976Z,305.62
2019-02-07T09:11:06.975Z,305.70
2019-02-07T09:12:06.965Z,305.73
2019-02-07T09:13:06.964Z,305.54
2019-02-07T09:14:06.978Z,305.89
2019-02-07T09:15:06.940Z,305.77
2019-02-07T09:16:06.918Z,305.38
2019-02-07T09:17:06.905Z,305.62
2019-02-07T09:18:11.333Z,305.85
2019-02-07T09:19:07.911Z,305.40
2019-02-07T09:20:06.868Z,305.09
2019-02-07T09:21:06.873Z,305.07
2019-02-07T09:22:06.850Z,305.51
2019-02-07T09:23:06.837Z,305.59
2019-02-07T09:24:06.854Z,305.60
2019-02-07T09:25:06.821Z,305.94
2019-02-07T09:26:06.813Z,305.73
2019-02-07T09:27:06.807Z,305.42
2019-02-07T09:28:06.786Z,305.62
2019-02-07T09:29:07.909Z,305.75
2019-02-07T09:30:06.768Z,305.68
2019-02-07T09:31:06.930Z,305.53
2019-02-07T09:32:06.771Z,305.92
2019-02-07T09:33:06.835Z,306.03
2019-02-07T09:34:06.727Z,305.76
2019-02-07T09:35:06.797Z,305.54
2019-02-07T09:36:06.712Z,305.92
2019-02-07T09:37:06.698Z,305.58
2019-02-07T09:38:06.686Z,305.45
2019-02-07T09:39:06.676Z,305.59
2019-02-07T09:40:06.912Z,305.48
2019-02-07T09:41:07.009Z,305.95
2019-02-07T09:42:06.630Z,305.63
2019-02-07T09:43:06.628Z,306.04
2019-02-07T09:44:06.636Z,306.16
2019-02-07T09:45:06.619Z,306.17
2019-02-07T09:46:07.074Z,305.94
2019-02-07T09:47:06.616Z,306.26
2019-02-07T09:48:06.573Z,306.42
2019-02-07T09:49:08.926Z,306.53
2019-02-07T09:50:06.552Z,306.18
2019-02-07T09:51:06.584Z,306.21
2019-02-07T09:52:06.521Z,306.28
2019-02-07T09:53:06.540Z,305.66
2019-02-07T09:54:06.502Z,305.92
2019-02-07T09:55:06.492Z,305.77
2019-02-07T09:56:06.490Z,305.73
2019-02-07T09:57:06.506Z,306.09
2019-02-07T09:58:06.465Z,306.06
2019-02-07T09:59:06.461Z,305.93
2019-02-07T10:00:06.440Z,306.29
2019-02-07T10:01:06.431Z,305.98
2019-02-07T10:02:06.427Z,307.17
2019-02-07T10:03:06.404Z,307.15
2019-02-07T10:04:06.410Z,308.93
2019-02-07T10:05:06.406Z,308.94
2019-02-07T10:06:06.381Z,307.31
2019-02-07T10:07:06.385Z,306.41
2019-02-07T10:08:06.386Z,306.50
2019-02-07T10:09:06.349Z,305.97
2019-02-07T10:10:06.354Z,306.48
2019-02-07T10:11:06.337Z,306.51
2019-02-07T10:12:06.309Z,306.24
2019-02-07T10:13:06.305Z,305.83
2019-02-07T10:14:06.297Z,305.89
2019-02-07T10:15:06.264Z,306.44
2019-02-07T10:16:06.268Z,306.90
2019-02-07T10:17:06.255Z,307.08
2019-02-07T10:18:06.261Z,309.11
2019-02-07T10:19:06.265Z,307.94
2019-02-07T10:20:06.234Z,309.29
2019-02-07T10:21:06.202Z,308.44
2019-02-07T10:22:06.203Z,306.84
2019-02-07T10:23:06.191Z,307.70
2019-02-07T10:24:06.216Z,308.34
2019-02-07T10:25:06.166Z,309.69
2019-02-07T10:26:06.158Z,309.99
2019-02-07T10:27:06.141Z,309.94
2019-02-07T10:28:06.141Z,309.16
2019-02-07T10:29:06.151Z,308.27
2019-02-07T10:30:06.116Z,309.21
2019-02-07T10:31:06.124Z,309.96
2019-02-07T10:32:06.091Z,310.35
2019-02-07T10:33:06.072Z,309.77
2019-02-07T10:34:06.077Z,310.00
2019-02-07T10:35:06.056Z,310.06
2019-02-07T10:36:06.096Z,310.37
2019-02-07T10:37:06.038Z,310.02
2019-02-07T10:38:06.030Z,309.96
2019-02-07T10:39:06.115Z,310.19
2019-02-07T10:40:06.003Z,310.31
2019-02-07T10:41:06.000Z,308.23
2019-02-07T10:42:06.004Z,306.90
2019-02-07T10:43:05.972Z,305.47
2019-02-07T10:44:05.946Z,305.24
2019-02-07T10:45:05.949Z,303.99
2019-02-07T10:46:05.936Z,304.09
2019-02-07T10:47:05.919Z,304.05
2019-02-07T10:48:05.918Z,304.41
2019-02-07T10:49:05.906Z,304.88
2019-02-07T10:50:05.922Z,303.88
2019-02-07T10:51:05.881Z,303.63
2019-02-07T10:52:05.866Z,303.19
2019-02-07T10:53:05.860Z,303.37
2019-02-07T10:54:05.854Z,302.92
2019-02-07T10:55:05.860Z,302.46
2019-02-07T10:56:05.850Z,302.56
2019-02-07T10:57:05.922Z,302.84
2019-02-07T10:58:05.806Z,302.48
2019-02-07T10:59:05.791Z,302.84
2019-02-07T11:00:05.786Z,302.72
2019-02-07T11:01:05.815Z,303.05
2019-02-07T11:02:05.772Z,302.78
2019-02-07T11:03:05.756Z,302.76
2019-02-07T11:04:05.756Z,303.42
2019-02-07T11:05:05.725Z,303.13
2019-02-07T11:06:05.715Z,303.73
2019-02-07T11:07:05.738Z,303.50
2019-02-07T11:08:05.702Z,303.60
2019-02-07T11:09:05.689Z,303.83
2019-02-07T11:10:05.671Z,303.70
2019-02-07T11:11:05.678Z,303.98
2019-02-07T11:12:05.651Z,304.22
2019-02-07T11:13:05.640Z,303.80
2019-02-07T11:14:05.637Z,304.78
2019-02-07T11:15:05.625Z,304.62
2019-02-07T11:16:05.630Z,304.07
2019-02-07T11:17:05.587Z,304.47
2019-02-07T11:18:05.577Z,304.21
2019-02-07T11:19:05.568Z,304.27
2019-02-07T11:20:05.565Z,304.17
2019-02-07T11:21:05.555Z,304.22
2019-02-07T11:22:05.561Z,304.26
2019-02-07T11:23:05.534Z,304.54
2019-02-07T11:24:05.513Z,304.70
2019-02-07T11:25:05.510Z,304.98
2019-02-07T11:26:05.492Z,304.65
2019-02-07T11:27:05.515Z,304.71
2019-02-07T11:28:10.754Z,304.19
2019-02-07T11:29:06.455Z,304.55
2019-02-07T11:30:05.444Z,304.49
2019-02-07T11:31:05.436Z,304.42
2019-02-07T11:32:05.485Z,304.84
2019-02-07T11:33:05.442Z,305.29
2019-02-07T11:34:05.411Z,304.51
2019-02-07T11:35:05.401Z,304.69
2019-02-07T11:36:05.380Z,304.02
2019-02-07T11:37:05.365Z,304.66
2019-02-07T11:38:05.379Z,304.27
2019-02-07T11:39:05.344Z,304.53
2019-02-07T11:40:05.343Z,304.55
2019-02-07T11:41:05.350Z,304.53
2019-02-07T11:42:05.310Z,304.30
2019-02-07T11:43:05.344Z,304.66
2019-02-07T11:44:05.304Z,304.43
2019-02-07T11:45:05.284Z,304.70
2019-02-07T11:46:05.291Z,304.95
2019-02-07T11:47:07.548Z,304.92
2019-02-07T11:48:05.252Z,304.69
2019-02-07T11:49:06.955Z,305.02
2019-02-07T11:50:05.241Z,304.92
2019-02-07T11:51:05.219Z,304.79
2019-02-07T11:52:05.210Z,304.72
2019-02-07T11:53:05.224Z,305.00
2019-02-07T11:54:05.212Z,304.39
2019-02-07T11:55:05.175Z,305.05
2019-02-07T11:56:05.165Z,304.36
2019-02-07T11:57:05.147Z,304.40
2019-02-07T11:58:05.146Z,304.40
2019-02-07T11:59:05.147Z,304.88
2019-02-07T12:00:05.124Z,304.71
2019-02-07T12:01:05.109Z,304.73
2019-02-07T12:02:09.240Z,304.54
2019-02-07T12:03:05.096Z,304.65
2019-02-07T12:04:05.107Z,304.61
2019-02-07T12:05:05.063Z,304.81
2019-02-07T12:06:05.085Z,304.88
2019-02-07T12:07:05.047Z,304.44
2019-02-07T12:08:05.032Z,304.87
2019-02-07T12:09:05.095Z,304.81
2019-02-07T12:10:05.042Z,304.88
2019-02-07T12:11:05.002Z,304.78
2019-02-07T12:12:05.026Z,304.75
2019-02-07T12:13:04.988Z,304.80
2019-02-07T12:14:04.964Z,305.31
2019-02-07T12:15:04.962Z,305.17
2019-02-07T12:16:04.941Z,304.75
2019-02-07T12:17:04.937Z,305.25
2019-02-07T12:18:04.946Z,304.83
2019-02-07T12:19:04.913Z,305.10
2019-02-07T12:20:04.890Z,305.22
2019-02-07T12:21:04.879Z,305.57
2019-02-07T12:22:04.874Z,304.92
2019-02-07T12:23:04.900Z,305.25
2019-02-07T12:24:04.872Z,305.02
2019-02-07T12:25:04.836Z,305.33
2019-02-07T12:26:04.826Z,305.23
2019-02-07T12:27:04.839Z,304.93
2019-02-07T12:28:04.843Z,304.89